Skip Navigation Links
NOAA logo - Click to go to the NOAA homepage
NOAA's National Weather Service
Alaska Aviation Weather Unit
  NWS logo - Click to go to the NWS homepage
Left Navbar Graphic     22 AKDT = 06 GMT

   
NOAA is celebrating 200 years of science, service, and stewardship. Visit the NOAA 200th celebration Web site to learn more.
USA.gov is the U.S. Government's official Web portal to all Federal, state and local government Web resources and services.
Facebook
NWS on Facebook

Important Change Regarding the AAWU Web Presence

 

Over the last several months, the AAWU has been working to navigate its webpages to a nationally supported server. Security, as well as other needs, have necessitated the change.  We have been given an extension for the site changeover while we diligently work at addressing feedback received. As of July 14, 2017, aawu.arh.noaa.gov will be discontinued. The new AAWU web address is weather.gov/aawu. It is now live and will run in-parallel with the old site until it is discontinued on July 14, 2017. Please continue to send any feedback or questions regarding the new webpages to nws.ar.aawu.webauthors@noaa.gov.  Thank you for your patience during this time of transition.
AAWU Home :: Display TAF Add Bookmark
TAF PADQ 260537Z 2606/2706 08004KT P6SM -RA FEW007 OVC015
     FM261000 VRB04KT 6SM BR OVC005
     FM262000 08006KT P6SM -RA SCT005 OVC012
     FM270300 VRB05KT 5SM -RA BR BKN005=

PADQ 260038Z 08004KT 10SM OVC013 14/12 A2999= SPECI PADQ 260038Z 08004KT 10SM OVC013 14/12 A2999 RMK AO2 T01390122= METAR PADQ 260053Z 09003KT 10SM OVC013 14/12 A2998= METAR PADQ 260153Z 10003KT 10SM OVC012 13/12 A2997= METAR PADQ 260253Z 00000KT 10SM OVC010 13/12 A2996= METAR PADQ 260353Z 00000KT 10SM OVC011 14/12 A2995= METAR PADQ 260453Z 09003KT 8SM OVC010 13/12 A2995= PADQ 260505Z 00000KT 8SM -RA SCT012 BKN019 OVC065 13/12 A2995= SPECI PADQ 260505Z 00000KT 8SM -RA SCT012 BKN019 OVC065 13/12 A2995 RMK AO2 RAB04 P0000 T01330122= PADQ 260523Z 14003KT 9SM -RA FEW007 BKN016 OVC070 13/12 A2995= SPECI PADQ 260523Z 14003KT 9SM -RA FEW007 BKN016 OVC070 13/12 A2995 RMK AO2 RAB04 P0000 T01330122= PADQ 260538Z 13003KT 10SM BKN007 OVC014 13/12 A2995= PADQ 260538Z 13003KT 10SM BKN007 OVC014 13/12 A2995 RMK AO2 RAB04E28 P0000 T01280122= METAR PADQ 260553Z 00000KT 10SM OVC008 13/12 A2995=
 Alaska TAF Map

NOAA's National Weather Service
Alaska Aviation Weather Unit
6930 Sand Lake Road
Anchorage, AK 99502-1845
Disclaimer
Credits
Glossary
Privacy Policy
About Us
Career Opportunities
Contact AAWU Internet Services Site last modified: April, 17th 2012